sensor_id;sensor_type;location;lat;lon;timestamp;pressure;altitude;pressure_sealevel;temperature;humidity
56420;BME280;42323;52.170;7.538;2023-02-11T00:01:28;102856.47;;;5.63;88.80
56420;BME280;42323;52.170;7.538;2023-02-11T00:03:57;102796.59;;;5.34;88.55
56420;BME280;42323;52.170;7.538;2023-02-11T00:06:25;102865.41;;;5.73;88.86
56420;BME280;42323;52.170;7.538;2023-02-11T00:08:54;102856.13;;;5.69;88.57
56420;BME280;42323;52.170;7.538;2023-02-11T00:11:22;102784.13;;;5.25;89.35
56420;BME280;42323;52.170;7.538;2023-02-11T00:13:53;102814.63;;;5.37;89.77
56420;BME280;42323;52.170;7.538;2023-02-11T00:16:23;102756.31;;;4.81;91.03
56420;BME280;42323;52.170;7.538;2023-02-11T00:18:52;102818.16;;;5.20;91.89
56420;BME280;42323;52.170;7.538;2023-02-11T00:21:25;102825.81;;;5.08;91.76
56420;BME280;42323;52.170;7.538;2023-02-11T00:23:52;102819.78;;;5.07;92.04
56420;BME280;42323;52.170;7.538;2023-02-11T00:26:27;102784.63;;;4.86;91.92
56420;BME280;42323;52.170;7.538;2023-02-11T00:28:54;102803.31;;;4.92;92.60
56420;BME280;42323;52.170;7.538;2023-02-11T00:31:27;102876.06;;;5.38;92.42
56420;BME280;42323;52.170;7.538;2023-02-11T00:33:56;102868.94;;;5.26;92.63
56420;BME280;42323;52.170;7.538;2023-02-11T01:38:30;102808.41;;;5.84;86.91
56420;BME280;42323;52.170;7.538;2023-02-11T01:41:09;102832.38;;;5.89;86.53
56420;BME280;42323;52.170;7.538;2023-02-11T01:43:49;102838.69;;;5.85;86.83
56420;BME280;42323;52.170;7.538;2023-02-11T01:46:34;102834.88;;;5.91;86.93
56420;BME280;42323;52.170;7.538;2023-02-11T03:00:11;102793.47;;;5.88;86.36
56420;BME280;42323;52.170;7.538;2023-02-11T03:03:14;102782.47;;;5.83;86.91
56420;BME280;42323;52.170;7.538;2023-02-11T03:05:56;102782.81;;;5.92;85.84
56420;BME280;42323;52.170;7.538;2023-02-11T03:09:03;102707.66;;;5.43;86.27
56420;BME280;42323;52.170;7.538;2023-02-11T03:11:37;102715.19;;;5.48;86.55
56420;BME280;42323;52.170;7.538;2023-02-11T03:14:09;102744.09;;;5.58;86.87
56420;BME280;42323;52.170;7.538;2023-02-11T04:17:10;102800.13;;;5.77;86.94
56420;BME280;42323;52.170;7.538;2023-02-11T04:19:38;102744.56;;;5.50;87.38
56420;BME280;42323;52.170;7.538;2023-02-11T04:22:23;102772.34;;;5.64;87.14
56420;BME280;42323;52.170;7.538;2023-02-11T04:24:55;102742.06;;;5.48;87.67
56420;BME280;42323;52.170;7.538;2023-02-11T04:27:31;102750.03;;;5.60;86.97
56420;BME280;42323;52.170;7.538;2023-02-11T04:30:08;102771.78;;;5.73;87.06
56420;BME280;42323;52.170;7.538;2023-02-11T04:38:08;102786.47;;;5.74;87.57
56420;BME280;42323;52.170;7.538;2023-02-11T04:40:39;102787.88;;;5.79;87.06
56420;BME280;42323;52.170;7.538;2023-02-11T04:43:25;102715.94;;;5.36;87.73
56420;BME280;42323;52.170;7.538;2023-02-11T04:45:56;102775.16;;;5.75;87.11
56420;BME280;42323;52.170;7.538;2023-02-11T04:48:27;102745.38;;;5.50;87.78
56420;BME280;42323;52.170;7.538;2023-02-11T04:50:59;102729.94;;;5.33;87.68
56420;BME280;42323;52.170;7.538;2023-02-11T04:53:41;102790.25;;;5.68;87.48
56420;BME280;42323;52.170;7.538;2023-02-11T04:56:13;102752.34;;;5.50;87.77
56420;BME280;42323;52.170;7.538;2023-02-11T05:57:59;102741.00;;;5.37;88.93
56420;BME280;42323;52.170;7.538;2023-02-11T06:00:33;102761.34;;;5.44;89.48
56420;BME280;42323;52.170;7.538;2023-02-11T06:03:27;102756.06;;;5.60;88.28
56420;BME280;42323;52.170;7.538;2023-02-11T06:06:27;102702.63;;;5.26;88.05
56420;BME280;42323;52.170;7.538;2023-02-11T06:08:56;102672.38;;;5.11;88.67
56420;BME280;42323;52.170;7.538;2023-02-11T06:11:35;102703.09;;;5.18;88.92
56420;BME280;42323;52.170;7.538;2023-02-11T06:14:19;102781.06;;;5.63;88.80
56420;BME280;42323;52.170;7.538;2023-02-11T07:16:29;102738.31;;;5.38;90.33
56420;BME280;42323;52.170;7.538;2023-02-11T07:19:02;102773.34;;;5.61;90.51
56420;BME280;42323;52.170;7.538;2023-02-11T07:21:33;102726.78;;;5.28;90.72
56420;BME280;42323;52.170;7.538;2023-02-11T07:24:09;102703.44;;;5.12;90.53
56420;BME280;42323;52.170;7.538;2023-02-11T07:26:41;102705.59;;;5.20;90.43
56420;BME280;42323;52.170;7.538;2023-02-11T07:29:31;102732.16;;;5.39;90.74
56420;BME280;42323;52.170;7.538;2023-02-11T08:37:00;102775.44;;;5.85;91.77
56420;BME280;42323;52.170;7.538;2023-02-11T08:42:30;102798.41;;;6.07;91.72
56420;BME280;42323;52.170;7.538;2023-02-11T08:45:37;102797.69;;;6.05;91.86
56420;BME280;42323;52.170;7.538;2023-02-11T08:48:39;102813.13;;;6.22;91.14
56420;BME280;42323;52.170;7.538;2023-02-11T08:55:14;102782.91;;;6.05;91.09
56420;BME280;42323;52.170;7.538;2023-02-11T08:58:18;102786.69;;;5.99;91.31
56420;BME280;42323;52.170;7.538;2023-02-11T09:01:39;102796.00;;;6.03;91.15
56420;BME280;42323;52.170;7.538;2023-02-11T09:29:29;102854.22;;;6.31;91.43
56420;BME280;42323;52.170;7.538;2023-02-11T09:31:55;102880.06;;;6.48;91.93
56420;BME280;42323;52.170;7.538;2023-02-11T09:34:22;102896.78;;;6.59;91.45
56420;BME280;42323;52.170;7.538;2023-02-11T09:36:48;102901.59;;;6.65;91.77
56420;BME280;42323;52.170;7.538;2023-02-11T09:39:17;102909.31;;;6.81;90.95
56420;BME280;42323;52.170;7.538;2023-02-11T09:44:43;102866.63;;;6.69;90.03
56420;BME280;42323;52.170;7.538;2023-02-11T09:47:23;102892.75;;;6.82;90.55
56420;BME280;42323;52.170;7.538;2023-02-11T09:49:56;102904.66;;;6.86;90.18
56420;BME280;42323;52.170;7.538;2023-02-11T09:54:58;102905.06;;;6.79;90.24
56420;BME280;42323;52.170;7.538;2023-02-11T09:57:31;102906.34;;;6.72;90.54
56420;BME280;42323;52.170;7.538;2023-02-11T10:05:42;102940.78;;;6.92;90.04
56420;BME280;42323;52.170;7.538;2023-02-11T10:11:08;102943.69;;;6.87;90.95
56420;BME280;42323;52.170;7.538;2023-02-11T10:14:12;102952.03;;;6.92;90.50
56420;BME280;42323;52.170;7.538;2023-02-11T10:22:23;102969.91;;;6.98;90.34
56420;BME280;42323;52.170;7.538;2023-02-11T10:24:57;102980.53;;;6.95;90.82
56420;BME280;42323;52.170;7.538;2023-02-11T10:27:35;102980.25;;;7.00;90.06
56420;BME280;42323;52.170;7.538;2023-02-11T10:30:15;102974.66;;;6.92;89.67
56420;BME280;42323;52.170;7.538;2023-02-11T10:32:47;102986.28;;;7.00;90.54
56420;BME280;42323;52.170;7.538;2023-02-11T10:35:19;102991.28;;;7.03;89.85
56420;BME280;42323;52.170;7.538;2023-02-11T10:37:47;102968.69;;;6.90;90.43
56420;BME280;42323;52.170;7.538;2023-02-11T10:40:24;102991.22;;;7.05;90.52
56420;BME280;42323;52.170;7.538;2023-02-11T10:42:54;102992.22;;;7.02;90.42
56420;BME280;42323;52.170;7.538;2023-02-11T10:45:45;102998.47;;;7.14;89.89
56420;BME280;42323;52.170;7.538;2023-02-11T10:53:39;102978.25;;;7.18;89.40
56420;BME280;42323;52.170;7.538;2023-02-11T10:56:07;102979.66;;;7.23;89.56
56420;BME280;42323;52.170;7.538;2023-02-11T10:58:40;102983.91;;;7.24;89.36
56420;BME280;42323;52.170;7.538;2023-02-11T11:01:09;102998.16;;;7.33;89.48
56420;BME280;42323;52.170;7.538;2023-02-11T11:03:51;102983.56;;;7.31;88.89
56420;BME280;42323;52.170;7.538;2023-02-11T11:06:29;102977.00;;;7.38;89.47
56420;BME280;42323;52.170;7.538;2023-02-11T11:08:56;102967.63;;;7.35;89.06
56420;BME280;42323;52.170;7.538;2023-02-11T11:11:27;102905.50;;;7.00;88.61
56420;BME280;42323;52.170;7.538;2023-02-11T11:14:12;102883.16;;;6.96;89.08
56420;BME280;42323;52.170;7.538;2023-02-11T11:16:52;102941.91;;;7.29;88.73
56420;BME280;42323;52.170;7.538;2023-02-11T11:19:23;102919.97;;;7.19;88.53
56420;BME280;42323;52.170;7.538;2023-02-11T11:21:52;102970.34;;;7.46;88.59
56420;BME280;42323;52.170;7.538;2023-02-11T11:24:31;102984.88;;;7.50;88.70
56420;BME280;42323;52.170;7.538;2023-02-11T11:27:01;102961.28;;;7.39;88.32
56420;BME280;42323;52.170;7.538;2023-02-11T11:29:37;102976.53;;;7.45;88.82
56420;BME280;42323;52.170;7.538;2023-02-11T11:32:10;102979.31;;;7.42;89.42
56420;BME280;42323;52.170;7.538;2023-02-11T11:34:42;102911.81;;;6.96;89.02
56420;BME280;42323;52.170;7.538;2023-02-11T11:37:23;102981.75;;;7.45;88.67
56420;BME280;42323;52.170;7.538;2023-02-11T11:42:40;102954.75;;;7.32;89.40
56420;BME280;42323;52.170;7.538;2023-02-11T11:48:27;102990.09;;;7.65;88.39
56420;BME280;42323;52.170;7.538;2023-02-11T11:50:57;102974.72;;;7.60;88.89
56420;BME280;42323;52.170;7.538;2023-02-11T11:53:33;102972.59;;;7.79;87.84
56420;BME280;42323;52.170;7.538;2023-02-11T11:56:05;102967.25;;;7.81;87.41
56420;BME280;42323;52.170;7.538;2023-02-11T11:58:34;102966.13;;;7.85;87.46
56420;BME280;42323;52.170;7.538;2023-02-11T12:12:39;102950.22;;;8.15;85.94
56420;BME280;42323;52.170;7.538;2023-02-11T12:15:35;102935.59;;;8.13;86.28
56420;BME280;42323;52.170;7.538;2023-02-11T12:18:11;102941.88;;;8.23;85.92
56420;BME280;42323;52.170;7.538;2023-02-11T12:26:23;102940.03;;;8.38;84.75
56420;BME280;42323;52.170;7.538;2023-02-11T12:56:29;102955.91;;;8.47;84.84
56420;BME280;42323;52.170;7.538;2023-02-11T12:58:59;102954.22;;;8.34;85.20
56420;BME280;42323;52.170;7.538;2023-02-11T13:01:36;102953.81;;;8.40;85.56
56420;BME280;42323;52.170;7.538;2023-02-11T13:04:15;102969.28;;;8.43;84.98
56420;BME280;42323;52.170;7.538;2023-02-11T13:06:48;102911.59;;;8.20;84.83
56420;BME280;42323;52.170;7.538;2023-02-11T13:09:24;102959.03;;;8.65;84.42
56420;BME280;42323;52.170;7.538;2023-02-11T13:11:57;102955.09;;;8.72;84.14
56420;BME280;42323;52.170;7.538;2023-02-11T13:14:47;102942.41;;;8.79;83.59
56420;BME280;42323;52.170;7.538;2023-02-11T13:17:21;102936.88;;;8.71;84.07
56420;BME280;42323;52.170;7.538;2023-02-11T13:19:58;102937.38;;;8.76;82.55
56420;BME280;42323;52.170;7.538;2023-02-11T13:22:55;102948.38;;;8.81;83.23
56420;BME280;42323;52.170;7.538;2023-02-11T13:25:32;102953.38;;;8.84;83.48
56420;BME280;42323;52.170;7.538;2023-02-11T13:31:08;102959.44;;;8.85;82.44
56420;BME280;42323;52.170;7.538;2023-02-11T13:33:41;102950.38;;;8.77;82.67
56420;BME280;42323;52.170;7.538;2023-02-11T13:36:12;102948.06;;;8.73;84.15
56420;BME280;42323;52.170;7.538;2023-02-11T13:38:40;102947.00;;;8.75;83.71
56420;BME280;42323;52.170;7.538;2023-02-11T13:41:19;102944.00;;;8.69;83.36
56420;BME280;42323;52.170;7.538;2023-02-11T13:44:19;102941.06;;;8.61;83.46
56420;BME280;42323;52.170;7.538;2023-02-11T13:46:53;102947.75;;;8.65;84.26
56420;BME280;42323;52.170;7.538;2023-02-11T13:51:53;102952.88;;;8.66;83.76
56420;BME280;42323;52.170;7.538;2023-02-11T13:54:33;102956.31;;;8.67;84.49
56420;BME280;42323;52.170;7.538;2023-02-11T13:59:59;102908.91;;;8.47;83.58
56420;BME280;42323;52.170;7.538;2023-02-11T14:02:36;102891.41;;;8.35;83.18
56420;BME280;42323;52.170;7.538;2023-02-11T14:05:51;102890.50;;;8.49;82.88
56420;BME280;42323;52.170;7.538;2023-02-11T14:12:20;102938.84;;;8.80;82.67
56420;BME280;42323;52.170;7.538;2023-02-11T14:17:35;102931.22;;;8.90;82.54
56420;BME280;42323;52.170;7.538;2023-02-11T14:20:04;102948.09;;;9.10;82.63
56420;BME280;42323;52.170;7.538;2023-02-11T14:22:51;102950.88;;;9.19;82.35
56420;BME280;42323;52.170;7.538;2023-02-11T14:25:23;102950.78;;;9.21;82.35
56420;BME280;42323;52.170;7.538;2023-02-11T14:28:05;102944.00;;;9.18;81.63
56420;BME280;42323;52.170;7.538;2023-02-11T14:30:45;102938.81;;;9.53;80.29
56420;BME280;42323;52.170;7.538;2023-02-11T14:36:45;102939.84;;;9.64;79.84
56420;BME280;42323;52.170;7.538;2023-02-11T14:39:36;102923.75;;;9.57;80.16
56420;BME280;42323;52.170;7.538;2023-02-11T14:42:16;102942.22;;;10.60;77.22
56420;BME280;42323;52.170;7.538;2023-02-11T14:44:49;102940.56;;;10.81;74.86
56420;BME280;42323;52.170;7.538;2023-02-11T14:47:38;102952.34;;;10.42;76.32
56420;BME280;42323;52.170;7.538;2023-02-11T14:50:15;102943.00;;;10.15;77.37
56420;BME280;42323;52.170;7.538;2023-02-11T14:52:44;102958.09;;;10.12;77.65
56420;BME280;42323;52.170;7.538;2023-02-11T14:58:04;102925.06;;;10.89;73.71
56420;BME280;42323;52.170;7.538;2023-02-11T15:00:30;102930.09;;;10.59;75.28
56420;BME280;42323;52.170;7.538;2023-02-11T15:02:57;102951.75;;;10.49;75.95
56420;BME280;42323;52.170;7.538;2023-02-11T15:05:26;102944.81;;;10.26;76.63
56420;BME280;42323;52.170;7.538;2023-02-11T15:08:00;102958.53;;;9.94;78.11
56420;BME280;42323;52.170;7.538;2023-02-11T15:10:33;102955.47;;;9.76;78.93
56420;BME280;42323;52.170;7.538;2023-02-11T15:13:03;102963.94;;;9.56;79.43
56420;BME280;42323;52.170;7.538;2023-02-11T15:15:31;102951.78;;;9.31;80.46
56420;BME280;42323;52.170;7.538;2023-02-11T15:26:19;102939.50;;;9.20;81.26
56420;BME280;42323;52.170;7.538;2023-02-11T15:31:27;102950.41;;;9.01;82.40
56420;BME280;42323;52.170;7.538;2023-02-11T15:34:05;102972.16;;;9.02;82.53
56420;BME280;42323;52.170;7.538;2023-02-11T15:36:32;102975.94;;;8.98;83.32
56420;BME280;42323;52.170;7.538;2023-02-11T15:41:43;102986.19;;;8.88;83.56
56420;BME280;42323;52.170;7.538;2023-02-11T15:44:29;102957.56;;;8.74;83.89
56420;BME280;42323;52.170;7.538;2023-02-11T15:46:56;102957.25;;;8.66;84.73
56420;BME280;42323;52.170;7.538;2023-02-11T15:52:06;102963.97;;;8.57;84.59
56420;BME280;42323;52.170;7.538;2023-02-11T15:54:33;102990.81;;;8.72;85.31
56420;BME280;42323;52.170;7.538;2023-02-11T15:57:06;102963.44;;;8.65;84.68
56420;BME280;42323;52.170;7.538;2023-02-11T15:59:36;102993.34;;;8.73;84.63
56420;BME280;42323;52.170;7.538;2023-02-11T16:02:07;102996.91;;;8.72;85.35
56420;BME280;42323;52.170;7.538;2023-02-11T16:12:30;103012.78;;;8.57;85.82
56420;BME280;42323;52.170;7.538;2023-02-11T16:14:56;103003.16;;;8.44;85.71
56420;BME280;42323;52.170;7.538;2023-02-11T16:17:26;103012.34;;;8.50;85.77
56420;BME280;42323;52.170;7.538;2023-02-11T16:19:53;103020.41;;;8.47;86.41
56420;BME280;42323;52.170;7.538;2023-02-11T16:22:26;103025.41;;;8.50;85.95
56420;BME280;42323;52.170;7.538;2023-02-11T16:24:57;103022.38;;;8.43;86.05
56420;BME280;42323;52.170;7.538;2023-02-11T16:27:26;103013.53;;;8.32;86.96
56420;BME280;42323;52.170;7.538;2023-02-11T16:29:56;103024.75;;;8.34;86.58
56420;BME280;42323;52.170;7.538;2023-02-11T16:37:40;103020.03;;;8.26;87.14
56420;BME280;42323;52.170;7.538;2023-02-11T16:40:07;103025.97;;;8.28;86.92
56420;BME280;42323;52.170;7.538;2023-02-11T16:42:34;103033.28;;;8.23;86.96
56420;BME280;42323;52.170;7.538;2023-02-11T16:45:00;103050.59;;;8.38;86.66
56420;BME280;42323;52.170;7.538;2023-02-11T16:47:27;103021.03;;;8.23;87.71
56420;BME280;42323;52.170;7.538;2023-02-11T16:49:54;103042.56;;;8.27;87.71
56420;BME280;42323;52.170;7.538;2023-02-11T16:52:22;103046.44;;;8.21;87.94
56420;BME280;42323;52.170;7.538;2023-02-11T16:54:49;103053.03;;;8.27;87.52
56420;BME280;42323;52.170;7.538;2023-02-11T16:57:19;103059.84;;;8.29;88.02
56420;BME280;42323;52.170;7.538;2023-02-11T16:59:47;103054.69;;;8.28;87.51
56420;BME280;42323;52.170;7.538;2023-02-11T17:02:18;103058.13;;;8.28;88.26
56420;BME280;42323;52.170;7.538;2023-02-11T17:04:49;103043.00;;;8.21;87.46
56420;BME280;42323;52.170;7.538;2023-02-11T17:07:16;103050.06;;;8.19;87.56
56420;BME280;42323;52.170;7.538;2023-02-11T17:09:42;103049.44;;;8.15;88.16
56420;BME280;42323;52.170;7.538;2023-02-11T17:33:43;103048.22;;;7.94;87.96
56420;BME280;42323;52.170;7.538;2023-02-11T17:36:10;103081.06;;;8.11;88.47
56420;BME280;42323;52.170;7.538;2023-02-11T17:38:36;103085.56;;;8.09;88.67
56420;BME280;42323;52.170;7.538;2023-02-11T17:41:03;103083.91;;;8.08;88.98
56420;BME280;42323;52.170;7.538;2023-02-11T17:43:31;103083.91;;;8.08;89.16
56420;BME280;42323;52.170;7.538;2023-02-11T17:45:58;103066.94;;;8.00;88.59
56420;BME280;42323;52.170;7.538;2023-02-11T17:48:25;103066.47;;;7.94;89.36
56420;BME280;42323;52.170;7.538;2023-02-11T17:50:51;103092.09;;;8.01;88.39
56420;BME280;42323;52.170;7.538;2023-02-11T18:36:28;103103.03;;;7.94;88.97
56420;BME280;42323;52.170;7.538;2023-02-11T18:38:54;103111.44;;;7.99;88.87
56420;BME280;42323;52.170;7.538;2023-02-11T18:41:23;103115.91;;;7.97;89.77
56420;BME280;42323;52.170;7.538;2023-02-11T18:43:49;103118.50;;;7.97;89.02
56420;BME280;42323;52.170;7.538;2023-02-11T18:46:16;103130.72;;;7.96;89.76
56420;BME280;42323;52.170;7.538;2023-02-11T18:48:43;103136.66;;;7.98;89.68
56420;BME280;42323;52.170;7.538;2023-02-11T18:51:16;103132.13;;;7.88;89.94
56420;BME280;42323;52.170;7.538;2023-02-11T18:53:45;103134.09;;;7.84;89.93
56420;BME280;42323;52.170;7.538;2023-02-11T18:56:14;103147.69;;;7.89;89.21
56420;BME280;42323;52.170;7.538;2023-02-11T18:58:41;103156.06;;;7.94;90.29
56420;BME280;42323;52.170;7.538;2023-02-11T19:01:18;103167.38;;;7.95;90.34
56420;BME280;42323;52.170;7.538;2023-02-11T19:03:46;103161.09;;;7.97;89.47
56420;BME280;42323;52.170;7.538;2023-02-11T19:06:15;103153.69;;;7.91;89.64
56420;BME280;42323;52.170;7.538;2023-02-11T19:08:41;103153.84;;;7.88;90.05
56420;BME280;42323;52.170;7.538;2023-02-11T19:11:08;103154.50;;;7.92;89.10
56420;BME280;42323;52.170;7.538;2023-02-11T19:13:35;103162.78;;;7.98;89.07
56420;BME280;42323;52.170;7.538;2023-02-11T19:16:07;103150.53;;;7.86;88.99
56420;BME280;42323;52.170;7.538;2023-02-11T19:18:37;103171.72;;;7.94;89.99
56420;BME280;42323;52.170;7.538;2023-02-11T19:21:10;103174.44;;;7.93;89.63
56420;BME280;42323;52.170;7.538;2023-02-11T19:23:37;103169.13;;;7.94;89.60
56420;BME280;42323;52.170;7.538;2023-02-11T19:26:08;103123.31;;;7.62;89.05
56420;BME280;42323;52.170;7.538;2023-02-11T19:28:38;103157.78;;;7.81;89.13
56420;BME280;42323;52.170;7.538;2023-02-11T19:31:08;103169.81;;;7.84;89.56
56420;BME280;42323;52.170;7.538;2023-02-11T19:33:35;103204.53;;;7.98;89.76
56420;BME280;42323;52.170;7.538;2023-02-11T19:36:05;103198.59;;;7.96;89.74
56420;BME280;42323;52.170;7.538;2023-02-11T19:38:33;103205.50;;;7.97;89.15
56420;BME280;42323;52.170;7.538;2023-02-11T19:41:01;103213.97;;;8.01;88.93
56420;BME280;42323;52.170;7.538;2023-02-11T19:43:27;103215.47;;;8.05;89.62
56420;BME280;42323;52.170;7.538;2023-02-11T19:45:54;103218.91;;;8.05;88.41
56420;BME280;42323;52.170;7.538;2023-02-11T19:48:24;103220.56;;;8.07;88.89
56420;BME280;42323;52.170;7.538;2023-02-11T19:50:51;103215.00;;;7.98;88.47
56420;BME280;42323;52.170;7.538;2023-02-11T19:53:17;103224.31;;;8.02;89.39
56420;BME280;42323;52.170;7.538;2023-02-11T19:55:44;103219.59;;;7.95;89.39
56420;BME280;42323;52.170;7.538;2023-02-11T19:58:11;103223.59;;;8.00;89.51
56420;BME280;42323;52.170;7.538;2023-02-11T20:00:37;103219.66;;;8.08;89.48
56420;BME280;42323;52.170;7.538;2023-02-11T20:03:07;103209.88;;;7.97;89.37
56420;BME280;42323;52.170;7.538;2023-02-11T20:05:38;103216.03;;;7.96;89.42
56420;BME280;42323;52.170;7.538;2023-02-11T20:08:08;103202.88;;;7.97;88.75
56420;BME280;42323;52.170;7.538;2023-02-11T20:10:34;103206.25;;;7.99;89.25
56420;BME280;42323;52.170;7.538;2023-02-11T20:13:01;103210.88;;;7.94;88.95
56420;BME280;42323;52.170;7.538;2023-02-11T20:15:29;103211.75;;;7.95;89.18
56420;BME280;42323;52.170;7.538;2023-02-11T20:17:56;103210.16;;;7.92;89.42
56420;BME280;42323;52.170;7.538;2023-02-11T20:20:24;103217.81;;;7.95;89.13
56420;BME280;42323;52.170;7.538;2023-02-11T20:22:51;103215.75;;;8.00;88.50
56420;BME280;42323;52.170;7.538;2023-02-11T20:25:21;103232.94;;;7.90;89.33
56420;BME280;42323;52.170;7.538;2023-02-11T20:27:47;103231.22;;;7.89;88.74
56420;BME280;42323;52.170;7.538;2023-02-11T20:30:14;103211.94;;;7.77;88.69
56420;BME280;42323;52.170;7.538;2023-02-11T20:32:40;103211.84;;;7.79;89.63
56420;BME280;42323;52.170;7.538;2023-02-11T20:35:07;103227.03;;;7.87;89.47
56420;BME280;42323;52.170;7.538;2023-02-11T20:37:34;103228.53;;;7.91;89.43
56420;BME280;42323;52.170;7.538;2023-02-11T20:40:00;103227.78;;;7.89;89.29
56420;BME280;42323;52.170;7.538;2023-02-11T20:42:27;103217.06;;;7.93;88.36
56420;BME280;42323;52.170;7.538;2023-02-11T20:44:53;103205.50;;;7.83;88.27
56420;BME280;42323;52.170;7.538;2023-02-11T20:47:20;103194.50;;;7.78;89.01
56420;BME280;42323;52.170;7.538;2023-02-11T20:49:48;103208.00;;;7.85;88.94
56420;BME280;42323;52.170;7.538;2023-02-11T20:52:14;103201.50;;;7.77;88.90
56420;BME280;42323;52.170;7.538;2023-02-11T20:54:43;103214.63;;;7.76;88.69
56420;BME280;42323;52.170;7.538;2023-02-11T20:57:10;103204.13;;;7.77;89.04
56420;BME280;42323;52.170;7.538;2023-02-11T20:59:36;103212.78;;;7.78;89.49
56420;BME280;42323;52.170;7.538;2023-02-11T21:02:03;103212.97;;;7.75;88.82
56420;BME280;42323;52.170;7.538;2023-02-11T21:04:30;103235.50;;;7.76;90.27
56420;BME280;42323;52.170;7.538;2023-02-11T21:07:00;103219.47;;;7.68;89.98
56420;BME280;42323;52.170;7.538;2023-02-11T21:09:29;103240.94;;;7.73;90.10
56420;BME280;42323;52.170;7.538;2023-02-11T21:11:56;103233.34;;;7.68;90.24
56420;BME280;42323;52.170;7.538;2023-02-11T21:14:23;103235.06;;;7.69;90.69
56420;BME280;42323;52.170;7.538;2023-02-11T21:16:53;103236.44;;;7.75;90.01
56420;BME280;42323;52.170;7.538;2023-02-11T21:19:22;103241.66;;;7.75;89.83
56420;BME280;42323;52.170;7.538;2023-02-11T21:21:49;103243.63;;;7.71;90.29
56420;BME280;42323;52.170;7.538;2023-02-11T21:24:16;103237.75;;;7.68;89.80
56420;BME280;42323;52.170;7.538;2023-02-11T21:26:43;103235.34;;;7.65;90.20
56420;BME280;42323;52.170;7.538;2023-02-11T21:29:10;103244.28;;;7.75;90.93
56420;BME280;42323;52.170;7.538;2023-02-11T21:31:37;103237.47;;;7.72;90.00
56420;BME280;42323;52.170;7.538;2023-02-11T21:34:05;103232.53;;;7.68;90.70
56420;BME280;42323;52.170;7.538;2023-02-11T21:36:32;103241.78;;;7.73;90.36
56420;BME280;42323;52.170;7.538;2023-02-11T21:38:59;103249.31;;;7.78;89.44
56420;BME280;42323;52.170;7.538;2023-02-11T21:41:26;103234.97;;;7.57;89.92
56420;BME280;42323;52.170;7.538;2023-02-11T21:43:53;103245.19;;;7.60;89.93
56420;BME280;42323;52.170;7.538;2023-02-11T21:46:20;103256.78;;;7.70;89.46
56420;BME280;42323;52.170;7.538;2023-02-11T21:48:47;103268.59;;;7.75;89.39
56420;BME280;42323;52.170;7.538;2023-02-11T21:51:17;103264.22;;;7.76;89.05
56420;BME280;42323;52.170;7.538;2023-02-11T21:53:45;103258.44;;;7.71;89.62
56420;BME280;42323;52.170;7.538;2023-02-11T21:56:15;103272.16;;;7.74;88.88
56420;BME280;42323;52.170;7.538;2023-02-11T21:58:43;103247.78;;;7.60;89.26
56420;BME280;42323;52.170;7.538;2023-02-11T22:01:15;103259.09;;;7.74;89.24
56420;BME280;42323;52.170;7.538;2023-02-11T22:03:42;103268.69;;;7.74;89.15
56420;BME280;42323;52.170;7.538;2023-02-11T22:06:11;103273.66;;;7.78;89.18
56420;BME280;42323;52.170;7.538;2023-02-11T22:08:38;103270.19;;;7.78;88.54
56420;BME280;42323;52.170;7.538;2023-02-11T22:11:08;103274.75;;;7.74;88.47
56420;BME280;42323;52.170;7.538;2023-02-11T22:13:35;103274.28;;;7.68;89.00
56420;BME280;42323;52.170;7.538;2023-02-11T22:16:04;103258.34;;;7.58;89.49
56420;BME280;42323;52.170;7.538;2023-02-11T22:18:31;103295.16;;;7.68;88.98
56420;BME280;42323;52.170;7.538;2023-02-11T22:21:04;103295.16;;;7.68;89.69
56420;BME280;42323;52.170;7.538;2023-02-11T22:23:31;103278.47;;;7.56;89.47
56420;BME280;42323;52.170;7.538;2023-02-11T22:26:01;103291.69;;;7.67;89.85
56420;BME280;42323;52.170;7.538;2023-02-11T22:28:28;103260.00;;;7.45;89.60
56420;BME280;42323;52.170;7.538;2023-02-11T22:30:55;103302.06;;;7.69;90.14
56420;BME280;42323;52.170;7.538;2023-02-11T22:33:23;103303.44;;;7.60;89.66
56420;BME280;42323;52.170;7.538;2023-02-11T22:36:02;103313.78;;;7.62;89.58
56420;BME280;42323;52.170;7.538;2023-02-11T22:38:30;103310.41;;;7.60;89.42
56420;BME280;42323;52.170;7.538;2023-02-11T22:40:58;103301.28;;;7.52;90.06
56420;BME280;42323;52.170;7.538;2023-02-11T22:43:26;103317.22;;;7.62;89.63
56420;BME280;42323;52.170;7.538;2023-02-11T22:45:59;103310.25;;;7.63;89.53
56420;BME280;42323;52.170;7.538;2023-02-11T22:48:26;103293.78;;;7.46;90.12
56420;BME280;42323;52.170;7.538;2023-02-11T22:50:52;103302.38;;;7.48;89.89
56420;BME280;42323;52.170;7.538;2023-02-11T22:53:19;103312.81;;;7.48;89.72
56420;BME280;42323;52.170;7.538;2023-02-11T22:55:45;103314.50;;;7.49;90.55
56420;BME280;42323;52.170;7.538;2023-02-11T22:58:12;103325.31;;;7.58;90.16
56420;BME280;42323;52.170;7.538;2023-02-11T23:00:40;103327.28;;;7.54;89.51
56420;BME280;42323;52.170;7.538;2023-02-11T23:03:07;103322.16;;;7.52;89.58
56420;BME280;42323;52.170;7.538;2023-02-11T23:05:40;103329.16;;;7.52;90.17
56420;BME280;42323;52.170;7.538;2023-02-11T23:08:09;103327.53;;;7.49;90.14
56420;BME280;42323;52.170;7.538;2023-02-11T23:10:36;103325.03;;;7.48;90.40
56420;BME280;42323;52.170;7.538;2023-02-11T23:13:05;103329.97;;;7.52;90.54
56420;BME280;42323;52.170;7.538;2023-02-11T23:15:32;103327.38;;;7.52;89.94
56420;BME280;42323;52.170;7.538;2023-02-11T23:17:59;103314.66;;;7.46;89.63
56420;BME280;42323;52.170;7.538;2023-02-11T23:20:25;103309.97;;;7.37;90.02
56420;BME280;42323;52.170;7.538;2023-02-11T23:22:52;103335.03;;;7.56;89.66
56420;BME280;42323;52.170;7.538;2023-02-11T23:25:18;103326.88;;;7.46;89.96
56420;BME280;42323;52.170;7.538;2023-02-11T23:27:48;103337.41;;;7.44;90.42
56420;BME280;42323;52.170;7.538;2023-02-11T23:30:15;103336.31;;;7.48;89.51
56420;BME280;42323;52.170;7.538;2023-02-11T23:32:41;103317.13;;;7.34;90.69